createdAt,value
2023-01-05T00:05:01.270Z,12.13
2023-01-05T00:10:03.084Z,12.07
2023-01-05T00:15:23.371Z,12.03
2023-01-05T00:20:43.329Z,12.01
2023-01-05T00:25:44.974Z,12.04
2023-01-05T00:30:47.495Z,11.99
2023-01-05T00:35:49.136Z,11.92
2023-01-05T00:40:50.943Z,11.86
2023-01-05T00:45:52.869Z,11.90
2023-01-05T00:50:54.587Z,11.98
2023-01-05T00:55:59.812Z,12.04
2023-01-05T01:01:08.460Z,12.07
2023-01-05T01:06:10.320Z,12.15
2023-01-05T01:11:12.120Z,12.27
2023-01-05T01:16:16.421Z,12.26
2023-01-05T01:21:18.142Z,12.24
2023-01-05T01:26:20.316Z,12.27
2023-01-05T01:31:22.050Z,12.39
2023-01-05T01:36:23.683Z,12.46
2023-01-05T01:41:25.569Z,12.46
2023-01-05T01:46:28.573Z,12.42
2023-01-05T01:51:35.951Z,12.45
2023-01-05T01:56:57.936Z,12.40
2023-01-05T02:02:01.544Z,12.35
2023-01-05T02:07:04.372Z,12.29
2023-01-05T02:12:36.326Z,12.25
2023-01-05T02:18:07.092Z,12.17
2023-01-05T02:23:31.898Z,12.22
2023-01-05T02:28:49.730Z,12.19
2023-01-05T02:34:16.499Z,12.24
2023-01-05T02:39:24.179Z,12.35
2023-01-05T02:44:29.555Z,12.28
2023-01-05T02:49:35.495Z,12.33
2023-01-05T02:54:41.848Z,12.35
2023-01-05T02:59:51.074Z,12.33
2023-01-05T03:05:04.405Z,12.48
2023-01-05T03:10:26.274Z,12.53
2023-01-05T03:15:32.598Z,12.66
2023-01-05T03:20:37.732Z,12.67
2023-01-05T03:25:59.636Z,12.74
2023-01-05T03:31:41.716Z,12.79
2023-01-05T03:36:53.681Z,12.63
2023-01-05T03:41:56.189Z,12.48
2023-01-05T03:46:58.095Z,12.36
2023-01-05T03:52:00.014Z,12.34
2023-01-05T03:57:03.558Z,12.18
2023-01-05T04:02:05.596Z,12.26
2023-01-05T04:07:08.035Z,12.17
2023-01-05T04:12:10.753Z,12.20
2023-01-05T04:17:16.744Z,12.31
2023-01-05T04:22:23.627Z,12.17
2023-01-05T04:27:29.231Z,12.13
2023-01-05T04:32:31.023Z,12.30
2023-01-05T04:37:32.764Z,12.29
2023-01-05T04:42:36.002Z,12.38
2023-01-05T04:47:38.214Z,12.40
2023-01-05T04:52:40.336Z,12.53
2023-01-05T04:57:43.029Z,12.68
2023-01-05T05:02:47.945Z,12.74
2023-01-05T05:07:50.613Z,12.68
2023-01-05T05:12:53.193Z,12.69
2023-01-05T05:17:54.998Z,12.61
2023-01-05T05:22:59.131Z,12.63
2023-01-05T05:28:03.008Z,12.62
2023-01-05T05:33:04.629Z,12.56
2023-01-05T05:38:06.272Z,12.47
2023-01-05T05:43:07.908Z,12.41
2023-01-05T05:48:09.533Z,12.26
2023-01-05T05:53:11.372Z,12.16
2023-01-05T05:58:13.003Z,12.15
2023-01-05T06:03:14.888Z,12.18
2023-01-05T06:08:16.817Z,12.16
2023-01-05T06:13:18.543Z,12.34
2023-01-05T06:18:20.256Z,12.38
2023-01-05T06:23:21.875Z,12.30
2023-01-05T06:28:23.520Z,12.36
2023-01-05T06:33:25.443Z,12.41
2023-01-05T06:38:27.395Z,12.43
2023-01-05T06:43:29.057Z,12.45
2023-01-05T06:48:30.870Z,12.45
2023-01-05T06:53:32.550Z,12.47
2023-01-05T06:58:34.191Z,12.48
2023-01-05T07:03:35.967Z,12.57
2023-01-05T07:08:37.676Z,12.66
2023-01-05T07:13:39.507Z,12.76
2023-01-05T07:18:41.170Z,12.83
2023-01-05T07:23:42.806Z,12.80
2023-01-05T07:28:44.678Z,12.92
2023-01-05T07:33:46.601Z,12.98
2023-01-05T07:38:48.209Z,13.03
2023-01-05T07:43:50.167Z,13.14
2023-01-05T07:48:51.849Z,13.17
2023-01-05T07:53:55.616Z,13.23
2023-01-05T07:58:57.281Z,13.26
2023-01-05T08:03:59.187Z,13.40
2023-01-05T08:09:20.812Z,13.43
2023-01-05T08:14:22.436Z,13.44
2023-01-05T08:19:24.104Z,13.50
2023-01-05T08:24:25.710Z,13.59
2023-01-05T08:29:27.400Z,13.57
2023-01-05T08:34:34.422Z,13.61
2023-01-05T08:39:36.824Z,13.69
2023-01-05T08:44:38.667Z,13.71
2023-01-05T08:49:40.367Z,13.69
2023-01-05T08:54:43.816Z,13.81
2023-01-05T08:59:45.678Z,13.78
2023-01-05T09:04:47.380Z,13.92
2023-01-05T09:09:49.081Z,13.86
2023-01-05T09:14:50.942Z,13.89
2023-01-05T09:19:52.614Z,13.89
2023-01-05T09:24:54.200Z,13.93
2023-01-05T09:29:55.840Z,13.95
2023-01-05T09:34:57.484Z,14.00
2023-01-05T09:39:59.116Z,14.01
2023-01-05T09:45:05.122Z,14.04
2023-01-05T09:50:13.232Z,14.13
2023-01-05T09:55:20.700Z,14.20
2023-01-05T10:00:24.487Z,14.15
2023-01-05T10:05:28.450Z,14.14
2023-01-05T10:10:41.667Z,13.56
2023-01-05T10:15:49.776Z,11.81
2023-01-05T10:21:03.685Z,11.59
2023-01-05T10:26:13.504Z,11.33
2023-01-05T10:31:24.247Z,11.17
2023-01-05T10:42:13.404Z,10.67
2023-01-05T10:47:15.315Z,10.77
2023-01-05T10:52:19.212Z,10.91
2023-01-05T10:57:34.737Z,11.06
2023-01-05T11:02:41.436Z,11.26
2023-01-05T11:07:51.842Z,11.31
2023-01-05T11:13:01.352Z,11.33
2023-01-05T11:18:03.268Z,11.47
2023-01-05T11:23:05.096Z,11.47
2023-01-05T11:28:11.686Z,11.36
2023-01-05T11:33:25.309Z,11.38
2023-01-05T11:38:30.558Z,11.41
2023-01-05T11:43:33.129Z,11.41
2023-01-05T11:48:36.275Z,11.49
2023-01-05T11:53:40.260Z,11.55
2023-01-05T11:58:45.248Z,11.62
2023-01-05T12:03:46.878Z,11.69
2023-01-05T12:08:55.371Z,11.71
2023-01-05T12:14:07.483Z,11.79
2023-01-05T12:19:24.889Z,11.83
2023-01-05T12:24:52.423Z,11.79
2023-01-05T12:35:53.311Z,11.68
2023-01-05T12:41:04.036Z,11.65
2023-01-05T12:46:40.832Z,11.72
2023-01-05T12:51:50.986Z,11.68
2023-01-05T12:57:00.504Z,11.78
2023-01-05T13:02:08.114Z,11.75
2023-01-05T13:07:19.399Z,11.77
2023-01-05T13:12:21.146Z,11.78
2023-01-05T13:17:28.938Z,11.81
2023-01-05T13:22:34.447Z,11.87
2023-01-05T13:27:36.274Z,11.95
2023-01-05T13:32:52.763Z,12.02
2023-01-05T13:38:20.708Z,12.03
2023-01-05T13:43:48.037Z,12.03
2023-01-05T13:49:24.734Z,12.06
2023-01-05T13:54:43.226Z,11.97
2023-01-05T14:00:09.358Z,11.97
2023-01-05T14:05:27.301Z,11.92
2023-01-05T14:10:32.490Z,11.96
2023-01-05T14:15:37.559Z,11.82
2023-01-05T14:20:46.900Z,11.80
2023-01-05T14:25:50.697Z,11.89
2023-01-05T14:31:15.497Z,11.74
2023-01-05T14:36:39.481Z,11.62
2023-01-05T14:41:43.181Z,11.62
2023-01-05T14:47:04.598Z,11.55
2023-01-05T14:52:16.673Z,11.45
2023-01-05T14:57:30.913Z,11.33
2023-01-05T15:02:37.709Z,11.29
2023-01-05T15:07:42.498Z,11.28
2023-01-05T15:12:53.146Z,11.33
2023-01-05T15:18:13.301Z,11.29
2023-01-05T15:23:23.676Z,11.24
2023-01-05T15:28:41.754Z,11.11
2023-01-05T15:33:54.305Z,10.88
2023-01-05T15:38:57.615Z,10.73
2023-01-05T15:43:59.364Z,10.59
2023-01-05T15:49:01.290Z,10.58
2023-01-05T15:54:05.556Z,10.49
2023-01-05T15:59:27.471Z,10.71
2023-01-05T16:04:29.304Z,10.79
2023-01-05T16:09:37.278Z,10.68
2023-01-05T16:14:43.375Z,10.74
2023-01-05T16:19:47.631Z,10.74
2023-01-05T16:25:15.691Z,10.89
2023-01-05T16:30:34.234Z,10.79
2023-01-05T16:35:40.412Z,10.66
2023-01-05T16:40:50.945Z,10.65
2023-01-05T16:45:58.040Z,10.72
2023-01-05T16:51:19.710Z,10.60
2023-01-05T16:56:52.349Z,10.56
2023-01-05T17:01:55.639Z,10.56
2023-01-05T17:06:59.037Z,10.59
2023-01-05T17:12:00.904Z,10.45
2023-01-05T17:17:02.617Z,10.36
2023-01-05T17:22:08.880Z,10.29
2023-01-05T17:32:19.744Z,10.27
2023-01-05T17:37:21.336Z,10.22
2023-01-05T17:42:41.447Z,10.29
2023-01-05T17:47:44.059Z,10.27
2023-01-05T17:52:45.807Z,10.39
2023-01-05T17:57:47.628Z,10.41
2023-01-05T18:02:50.416Z,10.40
2023-01-05T18:07:52.454Z,10.48
2023-01-05T18:12:54.086Z,10.56
2023-01-05T18:18:00.294Z,10.61
2023-01-05T18:23:02.175Z,10.53
2023-01-05T18:28:03.939Z,10.57
2023-01-05T18:33:05.798Z,10.61
2023-01-05T18:38:07.642Z,10.70
2023-01-05T18:43:09.349Z,10.66
2023-01-05T18:48:11.181Z,10.63
2023-01-05T18:53:13.223Z,10.64
2023-01-05T18:58:15.597Z,10.61
2023-01-05T19:03:17.214Z,10.53
2023-01-05T19:08:18.854Z,10.55
2023-01-05T19:13:20.571Z,10.70
2023-01-05T19:18:22.289Z,10.59
2023-01-05T19:23:25.422Z,10.63
2023-01-05T19:28:27.083Z,10.63
2023-01-05T19:33:28.721Z,10.75
2023-01-05T19:38:31.319Z,10.61
2023-01-05T19:43:33.471Z,10.47
2023-01-05T19:48:37.253Z,10.35
2023-01-05T19:53:39.940Z,10.27
2023-01-05T19:58:43.325Z,10.28
2023-01-05T20:03:49.072Z,10.26
2023-01-05T20:08:54.787Z,10.24
2023-01-05T20:13:56.593Z,10.20
2023-01-05T20:18:59.846Z,10.05
2023-01-05T20:24:02.960Z,10.04
2023-01-05T20:29:04.705Z,10.11
2023-01-05T20:34:13.134Z,10.10
2023-01-05T20:39:16.441Z,9.98
2023-01-05T20:44:21.506Z,10.03
2023-01-05T20:49:26.109Z,9.89
2023-01-05T20:54:28.161Z,9.92
2023-01-05T20:59:31.284Z,9.92
2023-01-05T21:04:33.027Z,9.89
2023-01-05T21:09:34.923Z,9.84
2023-01-05T21:14:36.653Z,9.78
2023-01-05T21:19:38.255Z,9.78
2023-01-05T21:24:41.061Z,9.72
2023-01-05T21:29:42.901Z,9.64
2023-01-05T21:34:45.183Z,9.64
2023-01-05T21:39:46.827Z,9.60
2023-01-05T21:44:48.516Z,9.58
2023-01-05T21:49:50.395Z,9.50
2023-01-05T21:55:10.581Z,9.51
2023-01-05T22:00:12.619Z,9.50
2023-01-05T22:05:14.234Z,9.49
2023-01-05T22:10:16.111Z,9.62
2023-01-05T22:15:18.329Z,9.56
2023-01-05T22:20:20.156Z,9.38
2023-01-05T22:25:21.741Z,9.17
2023-01-05T22:30:23.347Z,9.03
2023-01-05T22:35:25.853Z,9.00
2023-01-05T22:40:27.654Z,8.95
2023-01-05T22:45:29.298Z,8.81
2023-01-05T22:50:31.624Z,8.81
2023-01-05T22:55:33.226Z,8.78
2023-01-05T23:00:34.891Z,8.85
2023-01-05T23:05:40.352Z,8.87
2023-01-05T23:10:42.011Z,8.93
2023-01-05T23:15:43.679Z,9.08
2023-01-05T23:20:55.454Z,9.04
2023-01-05T23:25:57.612Z,9.01
2023-01-05T23:31:00.275Z,8.96
2023-01-05T23:36:03.301Z,8.88
2023-01-05T23:41:06.925Z,8.86
2023-01-05T23:46:12.102Z,8.80
2023-01-05T23:51:14.494Z,8.79
2023-01-05T23:56:19.427Z,8.72
